createdAt,value
2018-09-21T00:00:01.061Z,98393.04
2018-09-21T00:02:35.747Z,98390.08
2018-09-21T00:05:10.316Z,98386.87
2018-09-21T00:07:44.928Z,98382.11
2018-09-21T00:10:19.573Z,98378.50
2018-09-21T00:12:54.049Z,98376.03
2018-09-21T00:15:28.567Z,98380.52
2018-09-21T00:18:03.236Z,98382.33
2018-09-21T00:20:37.883Z,98374.32
2018-09-21T00:23:12.411Z,98363.32
2018-09-21T00:25:46.937Z,98364.83
2018-09-21T00:28:21.449Z,98358.58
2018-09-21T00:30:56.077Z,98364.54
2018-09-21T00:33:30.667Z,98352.74
2018-09-21T00:36:05.325Z,98358.23
2018-09-21T00:38:40.086Z,98349.98
2018-09-21T00:41:14.748Z,98352.34
2018-09-21T00:43:49.341Z,98347.80
2018-09-21T00:46:23.891Z,98344.93
2018-09-21T00:48:58.452Z,98344.14
2018-09-21T00:51:33.211Z,98346.87
2018-09-21T00:54:07.849Z,98340.58
2018-09-21T00:56:42.468Z,98336.66
2018-09-21T00:59:17.116Z,98335.85
2018-09-21T01:01:51.785Z,98327.42
2018-09-21T01:04:26.665Z,98322.17
2018-09-21T01:07:01.225Z,98316.59
2018-09-21T01:09:35.785Z,98304.58
2018-09-21T01:12:10.431Z,98302.61
2018-09-21T01:14:45.089Z,98299.69
2018-09-21T01:17:19.625Z,98304.00
2018-09-21T01:19:54.304Z,98299.87
2018-09-21T01:22:28.908Z,98295.13
2018-09-21T01:25:03.538Z,98289.62
2018-09-21T01:27:38.017Z,98290.19
2018-09-21T01:30:12.558Z,98288.80
2018-09-21T01:32:47.277Z,98276.78
2018-09-21T01:35:21.732Z,98278.77
2018-09-21T01:37:56.342Z,98273.44
2018-09-21T01:40:30.838Z,98272.45
2018-09-21T01:43:05.188Z,98265.31
2018-09-21T01:45:39.687Z,98258.44
2018-09-21T01:48:14.318Z,98248.57
2018-09-21T01:51:11.441Z,98242.48
2018-09-21T01:53:56.044Z,98235.22
2018-09-21T01:56:30.549Z,98239.34
2018-09-21T01:59:05.197Z,98236.11
2018-09-21T02:01:39.710Z,98233.89
2018-09-21T02:04:14.110Z,98231.59
2018-09-21T02:06:48.696Z,98228.25
2018-09-21T02:09:23.261Z,98217.03
2018-09-21T02:11:57.805Z,98214.50
2018-09-21T02:14:32.408Z,98213.19
2018-09-21T02:17:06.952Z,98208.11
2018-09-21T02:19:41.570Z,98202.63
2018-09-21T02:22:16.257Z,98196.58
2018-09-21T02:24:50.720Z,98189.72
2018-09-21T02:27:25.310Z,98183.24
2018-09-21T02:30:00.002Z,98183.65
2018-09-21T02:32:34.612Z,98179.71
2018-09-21T02:35:09.543Z,98180.55
2018-09-21T02:37:44.211Z,98166.19
2018-09-21T02:40:19.194Z,98160.91
2018-09-21T02:42:53.730Z,98160.12
2018-09-21T02:45:28.193Z,98147.74
2018-09-21T02:48:02.808Z,98133.55
2018-09-21T02:50:37.713Z,98135.13
2018-09-21T02:53:12.348Z,98133.55
2018-09-21T02:55:46.848Z,98128.04
2018-09-21T02:58:21.466Z,98117.20
2018-09-21T03:00:56.321Z,98117.01
2018-09-21T03:03:31.101Z,98102.63
2018-09-21T03:06:05.749Z,98103.80
2018-09-21T03:08:40.333Z,98095.92
2018-09-21T03:11:14.957Z,98102.81
2018-09-21T03:13:49.501Z,98088.42
2018-09-21T03:16:24.206Z,98086.63
2018-09-21T03:18:58.881Z,98079.36
2018-09-21T03:21:33.460Z,98078.77
2018-09-21T03:24:07.904Z,98074.99
2018-09-21T03:26:42.505Z,98071.66
2018-09-21T03:29:16.941Z,98063.77
2018-09-21T03:31:51.609Z,98056.47
2018-09-21T03:34:40.894Z,98044.05
2018-09-21T03:37:15.442Z,98041.30
2018-09-21T03:39:49.845Z,98033.80
2018-09-21T03:42:24.385Z,98029.69
2018-09-21T03:44:59.114Z,98022.77
2018-09-21T03:47:33.605Z,98019.44
2018-09-21T03:50:08.028Z,98022.38
2018-09-21T03:52:42.578Z,98008.78
2018-09-21T03:55:16.961Z,98016.66
2018-09-21T03:57:51.583Z,98001.70
2018-09-21T04:00:26.202Z,98003.46
2018-09-21T04:03:00.821Z,98006.63
2018-09-21T04:05:35.457Z,98000.89
2018-09-21T04:08:10.173Z,98009.19
2018-09-21T04:10:44.742Z,97996.56
2018-09-21T04:13:19.432Z,98001.27
2018-09-21T04:15:54.021Z,97993.00
2018-09-21T04:18:28.412Z,97998.49
2018-09-21T04:21:03.157Z,97984.70
2018-09-21T04:23:37.885Z,97987.26
2018-09-21T04:26:12.477Z,97976.41
2018-09-21T04:28:46.937Z,97978.77
2018-09-21T04:31:21.917Z,97976.22
2018-09-21T04:33:56.580Z,97973.30
2018-09-21T04:36:31.189Z,97977.44
2018-09-21T04:39:08.764Z,97970.53
2018-09-21T04:41:43.280Z,97974.48
2018-09-21T04:44:23.370Z,97972.72
2018-09-21T04:46:57.873Z,97972.50
2018-09-21T04:49:32.277Z,97968.19
2018-09-21T04:52:06.840Z,97962.09
2018-09-21T04:54:41.357Z,97956.36
2018-09-21T04:57:15.950Z,97953.61
2018-09-21T04:59:50.642Z,97944.34
2018-09-21T05:02:25.287Z,97946.52
2018-09-21T05:04:59.889Z,97955.99
2018-09-21T05:07:34.382Z,97943.77
2018-09-21T05:10:08.999Z,97935.30
2018-09-21T05:12:43.536Z,97942.81
2018-09-21T05:15:18.213Z,97936.32
2018-09-21T05:17:52.985Z,97930.61
2018-09-21T05:20:27.692Z,97938.88
2018-09-21T05:23:02.250Z,97934.36
2018-09-21T05:25:36.896Z,97918.78
2018-09-21T05:31:24.705Z,97908.76
2018-09-21T05:33:59.449Z,97909.36
2018-09-21T05:36:33.966Z,97903.24
2018-09-21T05:39:11.113Z,97930.44
2018-09-21T05:41:45.602Z,97921.95
2018-09-21T05:44:20.230Z,97924.92
2018-09-21T05:46:54.991Z,97926.28
2018-09-21T05:49:29.474Z,97915.07
2018-09-21T05:52:04.130Z,97914.48
2018-09-21T05:54:38.881Z,97918.20
2018-09-21T05:57:13.558Z,97923.53
2018-09-21T05:59:48.137Z,97918.59
2018-09-21T06:02:22.760Z,97924.11
2018-09-21T06:05:03.965Z,97908.37
2018-09-21T06:07:38.805Z,97915.45
2018-09-21T06:10:13.387Z,97917.81
2018-09-21T06:12:48.039Z,97919.20
2018-09-21T06:15:22.688Z,97919.39
2018-09-21T06:17:57.343Z,97917.22
2018-09-21T06:20:31.978Z,97916.05
2018-09-21T06:23:06.934Z,97915.08
2018-09-21T06:25:41.393Z,97909.56
2018-09-21T06:28:16.012Z,97916.27
2018-09-21T06:30:50.600Z,97917.41
2018-09-21T06:33:25.193Z,97922.36
2018-09-21T06:35:59.792Z,97930.44
2018-09-21T06:38:34.459Z,97939.70
2018-09-21T06:41:09.194Z,97932.98
2018-09-21T06:43:43.775Z,97929.27
2018-09-21T06:46:18.404Z,97936.73
2018-09-21T06:48:53.042Z,97933.98
2018-09-21T06:51:27.713Z,97911.34
2018-09-21T06:54:02.652Z,97912.13
2018-09-21T06:56:37.348Z,97901.49
2018-09-21T06:59:11.898Z,97905.02
2018-09-21T07:01:46.594Z,97917.44
2018-09-21T07:04:26.941Z,97935.37
2018-09-21T07:07:01.573Z,97928.26
2018-09-21T07:09:36.181Z,97934.97
2018-09-21T07:12:10.704Z,97946.38
2018-09-21T07:14:45.349Z,97946.98
2018-09-21T07:17:19.886Z,97949.13
2018-09-21T07:19:54.510Z,97955.64
2018-09-21T07:22:29.185Z,97939.10
2018-09-21T07:25:03.832Z,97955.06
2018-09-21T07:27:38.497Z,97959.19
2018-09-21T07:30:13.125Z,97968.83
2018-09-21T07:32:47.759Z,97957.39
2018-09-21T07:35:22.448Z,97948.75
2018-09-21T07:37:57.005Z,97947.75
2018-09-21T07:40:31.536Z,97935.91
2018-09-21T07:43:06.221Z,97931.75
2018-09-21T07:45:40.749Z,97939.27
2018-09-21T07:48:15.246Z,97936.88
2018-09-21T07:50:50.573Z,97931.19
2018-09-21T07:53:25.134Z,97924.90
2018-09-21T07:55:59.783Z,97908.55
2018-09-21T07:58:34.310Z,97905.99
2018-09-21T08:01:09.013Z,97908.38
2018-09-21T08:03:43.630Z,97913.69
2018-09-21T08:06:18.133Z,97909.56
2018-09-21T08:08:52.662Z,97915.28
2018-09-21T08:11:27.156Z,97917.27
2018-09-21T08:14:01.711Z,97914.08
2018-09-21T08:16:37.165Z,97923.73
2018-09-21T08:19:11.641Z,97927.67
2018-09-21T08:21:46.366Z,97927.27
2018-09-21T08:24:24.856Z,97918.40
2018-09-21T08:26:59.560Z,97914.05
2018-09-21T08:29:34.163Z,97897.33
2018-09-21T08:32:08.767Z,97887.63
2018-09-21T08:34:43.476Z,97895.10
2018-09-21T08:37:18.108Z,97903.02
2018-09-21T08:39:52.661Z,97874.26
2018-09-21T08:42:27.248Z,97907.38
2018-09-21T08:45:01.799Z,97930.84
2018-09-21T08:47:36.399Z,97938.94
2018-09-21T08:50:11.174Z,97972.09
2018-09-21T08:52:45.746Z,98009.61
2018-09-21T08:55:20.301Z,98026.42
2018-09-21T08:57:54.824Z,98045.22
2018-09-21T09:00:29.364Z,98049.58
2018-09-21T09:06:03.105Z,98098.70
2018-09-21T09:08:37.784Z,98111.70
2018-09-21T09:11:12.368Z,98122.89
2018-09-21T09:13:46.864Z,98134.44
2018-09-21T09:16:21.435Z,98144.35
2018-09-21T09:18:55.869Z,98147.70
2018-09-21T09:21:30.461Z,98184.28
2018-09-21T09:24:04.997Z,98187.25
2018-09-21T09:26:39.456Z,98197.67
2018-09-21T09:29:14.056Z,98209.48
2018-09-21T09:31:48.745Z,98234.33
2018-09-21T09:34:23.321Z,98231.95
2018-09-21T09:36:57.967Z,98219.46
2018-09-21T09:39:32.546Z,98236.19
2018-09-21T09:42:06.988Z,98235.73
2018-09-21T09:44:41.415Z,98242.88
2018-09-21T09:47:16.090Z,98222.24
2018-09-21T09:49:50.664Z,98208.41
2018-09-21T09:52:25.104Z,98215.34
2018-09-21T09:54:59.801Z,98206.38
2018-09-21T09:57:34.201Z,98215.09
2018-09-21T10:00:09.185Z,98217.94
2018-09-21T10:02:43.801Z,98233.36
2018-09-21T10:05:18.469Z,98237.78
2018-09-21T10:07:53.107Z,98238.59
2018-09-21T10:10:27.635Z,98256.84
2018-09-21T10:13:02.125Z,98234.44
2018-09-21T10:15:36.910Z,98231.48
2018-09-21T10:18:11.621Z,98239.22
2018-09-21T10:20:46.266Z,98248.06
2018-09-21T10:23:20.669Z,98241.14
2018-09-21T10:25:55.334Z,98226.42
2018-09-21T10:28:30.138Z,98225.48
2018-09-21T10:31:04.607Z,98245.11
2018-09-21T10:33:39.275Z,98253.85
2018-09-21T10:36:13.770Z,98247.39
2018-09-21T10:38:48.478Z,98237.40
2018-09-21T10:41:22.773Z,98247.95
2018-09-21T10:43:57.169Z,98254.34
2018-09-21T10:46:31.784Z,98249.91
2018-09-21T10:49:06.232Z,98247.64
2018-09-21T10:51:41.013Z,98239.97
2018-09-21T10:54:15.518Z,98244.95
2018-09-21T10:56:50.491Z,98242.88
2018-09-21T10:59:25.543Z,98235.86
2018-09-21T11:02:00.027Z,98248.79
2018-09-21T11:04:34.638Z,98246.77
2018-09-21T11:07:09.136Z,98238.14
2018-09-21T11:09:43.468Z,98247.21
2018-09-21T11:12:18.052Z,98247.39
2018-09-21T11:14:52.477Z,98241.61
2018-09-21T11:17:27.065Z,98246.72
2018-09-21T11:20:01.468Z,98254.80
2018-09-21T11:22:35.948Z,98263.89
2018-09-21T11:25:10.341Z,98250.70
2018-09-21T11:27:44.681Z,98251.25
2018-09-21T11:30:19.201Z,98263.48
2018-09-21T11:32:53.785Z,98262.34
2018-09-21T11:35:28.424Z,98260.02
2018-09-21T11:38:03.013Z,98236.66
2018-09-21T11:40:37.460Z,98235.38
2018-09-21T11:43:12.148Z,98242.06
2018-09-21T11:45:46.653Z,98244.16
2018-09-21T11:48:21.179Z,98250.74
2018-09-21T11:50:55.712Z,98245.19
2018-09-21T11:53:30.330Z,98247.29
2018-09-21T11:56:04.834Z,98243.05
2018-09-21T11:58:39.405Z,98243.27
2018-09-21T12:01:14.025Z,98253.08
2018-09-21T12:03:48.571Z,98261.77
2018-09-21T12:06:23.178Z,98252.12
2018-09-21T12:08:57.756Z,98252.95
2018-09-21T12:11:32.197Z,98253.30
2018-09-21T12:14:06.654Z,98255.31
2018-09-21T12:16:41.401Z,98257.50
2018-09-21T12:19:15.970Z,98260.95
2018-09-21T12:21:50.573Z,98266.58
2018-09-21T12:24:25.099Z,98266.27
2018-09-21T12:26:59.680Z,98263.36
2018-09-21T12:29:34.349Z,98278.36
2018-09-21T12:32:08.820Z,98292.44
2018-09-21T12:34:43.352Z,98302.58
2018-09-21T12:37:36.296Z,98309.68
2018-09-21T12:40:23.941Z,98310.70
2018-09-21T12:42:58.400Z,98314.77
2018-09-21T12:45:33.121Z,98319.28
2018-09-21T12:48:07.811Z,98323.06
2018-09-21T12:50:42.390Z,98336.02
2018-09-21T12:53:16.909Z,98334.84
2018-09-21T12:55:51.208Z,98350.86
2018-09-21T12:58:25.816Z,98348.49
2018-09-21T13:01:00.273Z,98364.33
2018-09-21T13:03:48.107Z,98359.39
2018-09-21T13:06:22.719Z,98369.94
2018-09-21T13:08:57.432Z,98389.64
2018-09-21T13:11:32.093Z,98383.77
2018-09-21T13:14:06.813Z,98397.70
2018-09-21T13:16:41.290Z,98389.84
2018-09-21T13:19:15.953Z,98399.51
2018-09-21T13:21:50.742Z,98398.71
2018-09-21T13:24:25.320Z,98403.22
2018-09-21T13:26:59.764Z,98414.89
2018-09-21T13:29:34.405Z,98414.32
2018-09-21T13:32:09.399Z,98418.42
2018-09-21T13:34:43.819Z,98404.23
2018-09-21T13:37:18.268Z,98418.67
2018-09-21T13:39:52.927Z,98426.97
2018-09-21T13:42:27.510Z,98428.14
2018-09-21T13:45:02.220Z,98426.20
2018-09-21T13:47:36.893Z,98433.80
2018-09-21T13:50:11.401Z,98431.50
2018-09-21T13:52:46.001Z,98434.78
2018-09-21T13:55:20.602Z,98435.04
2018-09-21T13:57:55.264Z,98440.25
2018-09-21T14:00:29.778Z,98445.81
2018-09-21T14:03:04.330Z,98430.72
2018-09-21T14:05:39.018Z,98429.97
2018-09-21T14:08:13.449Z,98443.16
2018-09-21T14:10:48.073Z,98446.56
2018-09-21T14:13:22.606Z,98449.86
2018-09-21T14:15:57.329Z,98458.09
2018-09-21T14:18:31.825Z,98455.39
2018-09-21T14:21:06.550Z,98463.95
2018-09-21T14:23:41.179Z,98459.07
2018-09-21T14:26:15.766Z,98458.98
2018-09-21T14:28:50.316Z,98460.69
2018-09-21T14:31:25.049Z,98461.13
2018-09-21T14:33:59.537Z,98460.38
2018-09-21T14:36:34.054Z,98466.31
2018-09-21T14:39:10.076Z,98462.66
2018-09-21T14:41:44.713Z,98477.11
2018-09-21T14:44:19.257Z,98484.12
2018-09-21T14:46:53.872Z,98486.23
2018-09-21T14:49:28.560Z,98476.86
2018-09-21T14:52:03.101Z,98478.83
2018-09-21T14:54:53.117Z,98487.69
2018-09-21T14:57:27.644Z,98490.53
2018-09-21T15:00:02.642Z,98496.12
2018-09-21T15:02:37.247Z,98510.77
2018-09-21T15:05:11.944Z,98506.83
2018-09-21T15:07:46.469Z,98503.16
2018-09-21T15:10:21.330Z,98517.11
2018-09-21T15:12:55.969Z,98505.45
2018-09-21T15:15:30.677Z,98511.24
2018-09-21T15:18:05.193Z,98519.34
2018-09-21T15:20:39.788Z,98521.72
2018-09-21T15:23:14.164Z,98525.69
2018-09-21T15:25:48.590Z,98526.97
2018-09-21T15:28:23.159Z,98540.06
2018-09-21T15:30:57.630Z,98548.80
2018-09-21T15:33:32.347Z,98538.22
2018-09-21T15:36:06.940Z,98534.86
2018-09-21T15:38:41.774Z,98536.08
2018-09-21T15:41:16.297Z,98535.63
2018-09-21T15:43:50.721Z,98548.42
2018-09-21T15:46:25.357Z,98548.19
2018-09-21T15:48:59.856Z,98556.28
2018-09-21T15:51:35.073Z,98564.15
2018-09-21T15:54:09.653Z,98564.38
2018-09-21T15:56:44.265Z,98576.35
2018-09-21T15:59:18.925Z,98575.77
2018-09-21T16:02:16.073Z,98571.43
2018-09-21T16:05:03.233Z,98578.16
2018-09-21T16:07:37.773Z,98580.62
2018-09-21T16:10:16.283Z,98579.20
2018-09-21T16:13:00.250Z,98582.69
2018-09-21T16:15:48.470Z,98581.19
2018-09-21T16:18:22.966Z,98588.66
2018-09-21T16:20:57.465Z,98596.20
2018-09-21T16:23:32.118Z,98592.89
2018-09-21T16:26:06.667Z,98595.44
2018-09-21T16:28:41.656Z,98601.08
2018-09-21T16:31:16.221Z,98593.34
2018-09-21T16:33:50.654Z,98600.80
2018-09-21T16:36:25.309Z,98596.25
2018-09-21T16:39:00.164Z,98597.41
2018-09-21T16:41:34.821Z,98607.38
2018-09-21T16:44:09.753Z,98605.98
2018-09-21T16:46:44.498Z,98597.22
2018-09-21T16:49:19.013Z,98607.17
2018-09-21T16:51:53.693Z,98608.56
2018-09-21T16:54:28.254Z,98606.53
2018-09-21T16:57:02.950Z,98608.86
2018-09-21T16:59:37.417Z,98616.61
2018-09-21T17:02:11.796Z,98608.41
2018-09-21T17:04:46.271Z,98607.95
2018-09-21T17:07:20.705Z,98618.45
2018-09-21T17:09:55.334Z,98623.09
2018-09-21T17:12:30.014Z,98633.69
2018-09-21T17:15:04.556Z,98633.66
2018-09-21T17:17:39.260Z,98642.05
2018-09-21T17:20:14.051Z,98636.80
2018-09-21T17:22:48.664Z,98648.84
2018-09-21T17:25:23.157Z,98650.22
2018-09-21T17:27:57.917Z,98649.70
2018-09-21T17:30:32.669Z,98656.95
2018-09-21T17:33:07.345Z,98656.73
2018-09-21T17:35:42.329Z,98673.72
2018-09-21T17:38:16.997Z,98670.30
2018-09-21T17:40:51.688Z,98679.59
2018-09-21T17:43:26.394Z,98675.94
2018-09-21T17:46:00.832Z,98681.83
2018-09-21T17:48:35.921Z,98680.01
2018-09-21T17:51:10.551Z,98692.44
2018-09-21T17:53:46.608Z,98691.15
2018-09-21T17:56:21.062Z,98699.67
2018-09-21T17:58:55.553Z,98709.19
2018-09-21T18:01:30.139Z,98714.77
2018-09-21T18:04:04.945Z,98725.82
2018-09-21T18:06:39.569Z,98728.19
2018-09-21T18:09:14.067Z,98735.56
2018-09-21T18:11:49.386Z,98739.42
2018-09-21T18:14:23.874Z,98743.70
2018-09-21T18:16:58.581Z,98738.25
2018-09-21T18:19:32.955Z,98746.20
2018-09-21T18:22:07.438Z,98737.39
2018-09-21T18:24:42.194Z,98754.70
2018-09-21T18:27:16.821Z,98752.83
2018-09-21T18:29:51.477Z,98746.77
2018-09-21T18:32:26.652Z,98748.20
2018-09-21T18:35:01.148Z,98740.53
2018-09-21T18:37:35.832Z,98747.38
2018-09-21T18:40:10.385Z,98751.94
2018-09-21T18:42:44.871Z,98753.41
2018-09-21T18:45:19.683Z,98761.57
2018-09-21T18:47:54.437Z,98770.59
2018-09-21T18:50:29.190Z,98783.51
2018-09-21T18:53:03.653Z,98787.23
2018-09-21T18:58:40.621Z,98803.77
2018-09-21T19:01:15.142Z,98815.23
2018-09-21T19:03:49.591Z,98821.73
2018-09-21T19:06:24.156Z,98827.69
2018-09-21T19:08:59.207Z,98839.64
2018-09-21T19:11:41.730Z,98831.73
2018-09-21T19:14:16.326Z,98854.27
2018-09-21T19:16:51.018Z,98856.27
2018-09-21T19:19:25.827Z,98865.41
2018-09-21T19:22:00.540Z,98871.90
2018-09-21T19:24:35.112Z,98869.97
2018-09-21T19:27:09.805Z,98871.56
2018-09-21T19:29:44.409Z,98880.95
2018-09-21T19:32:18.876Z,98885.88
2018-09-21T19:34:53.296Z,98892.77
2018-09-21T19:37:28.016Z,98887.31
2018-09-21T19:40:02.761Z,98900.20
2018-09-21T19:42:37.462Z,98898.70
2018-09-21T19:45:12.963Z,98897.90
2018-09-21T19:47:48.957Z,98905.19
2018-09-21T19:50:23.588Z,98908.81
2018-09-21T19:52:58.191Z,98908.58
2018-09-21T19:55:32.891Z,98910.58
2018-09-21T19:58:08.369Z,98909.61
2018-09-21T20:00:42.944Z,98913.30
2018-09-21T20:03:17.489Z,98919.59
2018-09-21T20:05:52.469Z,98918.53
2018-09-21T20:08:26.944Z,98909.54
2018-09-21T20:11:01.580Z,98917.26
2018-09-21T20:13:36.356Z,98914.39
2018-09-21T20:16:11.308Z,98922.34
2018-09-21T20:18:45.804Z,98918.95
2018-09-21T20:21:20.293Z,98919.28
2018-09-21T20:23:54.689Z,98918.34
2018-09-21T20:26:29.213Z,98935.94
2018-09-21T20:29:03.885Z,98935.52
2018-09-21T20:32:44.443Z,98937.16
2018-09-21T20:35:19.167Z,98943.69
2018-09-21T20:37:53.725Z,98948.67
2018-09-21T20:40:28.225Z,98955.08
2018-09-21T20:43:02.939Z,98957.00
2018-09-21T20:45:37.416Z,98962.88
2018-09-21T20:48:11.997Z,98963.91
2018-09-21T20:50:46.565Z,98965.36
2018-09-21T20:53:21.549Z,98961.52
2018-09-21T20:55:55.969Z,98967.62
2018-09-21T20:58:30.471Z,98974.77
2018-09-21T21:01:05.149Z,98969.63
2018-09-21T21:03:39.742Z,98983.27
2018-09-21T21:06:14.217Z,98987.36
2018-09-21T21:08:48.831Z,98992.91
2018-09-21T21:11:23.284Z,98980.88
2018-09-21T21:13:57.668Z,98985.52
2018-09-21T21:16:32.208Z,98988.81
2018-09-21T21:19:06.793Z,98988.23
2018-09-21T21:21:41.320Z,98998.36
2018-09-21T21:24:15.981Z,98990.98
2018-09-21T21:26:50.476Z,99003.34
2018-09-21T21:29:24.945Z,99003.24
2018-09-21T21:31:59.609Z,99011.73
2018-09-21T21:34:34.165Z,99011.02
2018-09-21T21:37:08.696Z,99017.98
2018-09-21T21:39:43.103Z,99026.92
2018-09-21T21:42:17.737Z,99029.52
2018-09-21T21:44:52.100Z,99028.84
2018-09-21T21:47:26.732Z,99035.25
2018-09-21T21:50:01.317Z,99033.09
2018-09-21T21:52:36.028Z,99037.89
2018-09-21T21:55:10.685Z,99056.80
2018-09-21T21:57:45.100Z,99055.44
2018-09-21T22:00:20.068Z,99056.72
2018-09-21T22:02:54.581Z,99056.64
2018-09-21T22:05:29.293Z,99058.28
2018-09-21T22:08:03.791Z,99055.56
2018-09-21T22:10:38.219Z,99065.82
2018-09-21T22:13:18.164Z,99060.38
2018-09-21T22:15:52.689Z,99075.12
2018-09-21T22:18:27.590Z,99072.96
2018-09-21T22:21:02.324Z,99077.52
2018-09-21T22:23:46.273Z,99082.73
2018-09-21T22:26:20.828Z,99073.98
2018-09-21T22:28:55.681Z,99080.67
2018-09-21T22:31:30.701Z,99077.86
2018-09-21T22:34:05.206Z,99076.49
2018-09-21T22:36:39.738Z,99084.11
2018-09-21T22:39:14.184Z,99092.11
2018-09-21T22:41:48.846Z,99094.17
2018-09-21T22:44:26.848Z,99109.17
2018-09-21T22:47:01.226Z,99100.52
2018-09-21T22:49:35.755Z,99114.45
2018-09-21T22:52:10.244Z,99114.53
2018-09-21T22:54:44.834Z,99120.84
2018-09-21T22:57:19.404Z,99113.70
2018-09-21T22:59:54.034Z,99118.51
2018-09-21T23:05:27.239Z,99119.45
2018-09-21T23:08:01.620Z,99118.89
2018-09-21T23:10:36.044Z,99114.98
2018-09-21T23:13:10.353Z,99118.69
2018-09-21T23:15:44.831Z,99122.13
2018-09-21T23:18:19.325Z,99120.16
2018-09-21T23:20:53.724Z,99126.05
2018-09-21T23:23:28.060Z,99130.55
2018-09-21T23:26:02.517Z,99131.04
2018-09-21T23:28:36.903Z,99134.42
2018-09-21T23:31:11.452Z,99143.08
2018-09-21T23:33:45.780Z,99136.09
2018-09-21T23:36:20.495Z,99149.33
2018-09-21T23:38:54.971Z,99141.32
2018-09-21T23:41:29.525Z,99152.53
2018-09-21T23:44:04.126Z,99150.05
2018-09-21T23:46:38.791Z,99152.39
2018-09-21T23:49:13.103Z,99148.20
2018-09-21T23:51:47.603Z,99157.27
2018-09-21T23:54:21.884Z,99150.13
2018-09-21T23:56:56.312Z,99162.00
2018-09-21T23:59:30.651Z,99177.55
